Rosholt, Wisconsin
Current Conditions -  °F | °C
As of 6:15 PM on Wednesday 26 Nov 2014 (Local Time) from KSTE Reporting Station
Unknown Precip Unknown Precip  
Wind Chill: 22°   Ceiling: 6500
Heat Index: 22°   Visibility: 5mi
Dew Point: 18°   Wind: 0mph
Humidity: 87%   Direction: NA
Pressure: 30.17"   Gusts: NA
Location:  44.63°N, 89.31°W
Report Text: KSTE 270015Z AUTO 00000KT 5SM UP SCT033 BKN065 OVC080 M06/M08 A3017 RMK AO2 T10581076
Loading
Personal Weather Stations






























Interactive Weather Map New forecast layout! Learn more

10-Day Weather Forecast

Advertisements
Track Severe Weather on mobile